Upstream stations:
Downstream station:
SHEF ID: FLRK1 COTTONWOOD R NR FLORENCE, KS
STATION TYPE:
Regulating: Stage = 21.00, Flow = 9471
PRECIP STAGE STAGE(2) RIV-FLOW BAT-LOAD
in ft ft cfs volt
Ccp-Rev Ccp-Rev Ccp-Rev Ccp-Rev Ccp-Rev
(US/Central)
11/24 00:00 0.00 3.03 2.93 64 12.89
11/24 01:00 0.00 3.04 2.91 67 12.89
11/24 02:00 0.00 3.05 2.91 69 12.83
11/24 03:00 0.00 3.03 2.91 64 12.83
11/24 04:00 0.00 3.06 2.91 72 12.83
11/24 05:00 0.00 3.06 2.91 72 12.83
11/24 06:00 0.00 3.06 2.92 72 12.77
11/24 07:00 0.00 3.06 2.91 72 12.77
11/24 08:00 0.00 3.06 2.91 72 12.71
11/24 09:00 0.00 3.06 2.91 72 12.89
11/24 10:00 0.00 3.05 2.91 69 13.48
11/24 11:00 0.00 3.06 2.91 72 13.65
11/24 12:00 0.00 3.06 2.91 72 13.53
11/24 13:00 0.00 3.06 2.91 72 13.48
11/24 14:00 0.00 3.06 2.91 72 13.48
11/24 15:00 0.00 3.06 2.91 72 13.42
11/24 16:00 0.00 3.06 2.91 72 13.30
11/24 17:00 0.00 3.04 2.90 67 13.12
11/24 18:00 0.00 3.06 2.91 72 13.00
11/24 19:00 0.00 3.04 2.90 67 13.00
11/24 20:00 0.00 3.03 2.90 64 12.95
11/24 21:00 0.00 3.04 2.91 67 12.89
11/24 22:00 0.00 3.05 2.91 69 12.89
11/24 23:00 ---- ---- ---- ---- ----